Time;durP1;ratioP1;P1;durP2;ratioP2;P2;SDS_P1;SDS_P2;PMS_P1;PMS_P2;Temp;Humidity;BMP_temperature;BMP_pressure;BME280_temperature;BME280_humidity;BME280_pressure;Samples;Min_cycle;Max_cycle;Signal;HPM_P1;HPM_P2
2022/07/03 00:01:46;;;;;;;3.13;1.38;;;21.90;99.10;;;;;;6186924;23;20513;-85
2022/07/03 00:04:12;;;;;;;3.30;1.60;;;22.00;99.10;;;;;;6184430;23;20005;-85
2022/07/03 00:06:38;;;;;;;5.78;1.20;;;21.90;99.10;;;;;;6185994;23;20007;-85
2022/07/03 00:09:05;;;;;;;1.33;0.93;;;21.90;99.10;;;;;;6184441;23;20043;-85
2022/07/03 00:11:32;;;;;;;5.88;1.20;;;21.90;99.10;;;;;;6184467;23;20005;-85
2022/07/03 00:13:57;;;;;;;2.55;1.25;;;22.00;99.10;;;;;;6208852;23;20012;-85
2022/07/03 00:16:23;;;;;;;2.50;1.15;;;21.90;99.10;;;;;;6215892;23;20011;-85
2022/07/03 00:18:49;;;;;;;2.25;1.25;;;21.90;99.10;;;;;;6189393;23;20040;-85
2022/07/03 00:21:42;;;;;;;1.60;1.30;;;21.90;99.10;;;;;;6189311;23;20007;-85
2022/07/03 00:24:13;;;;;;;2.25;1.23;;;21.90;99.20;;;;;;6189356;23;20004;-85
2022/07/03 00:26:44;;;;;;;3.47;1.10;;;21.90;99.10;;;;;;6189367;23;20004;-85
2022/07/03 00:29:12;;;;;;;3.05;1.20;;;21.90;99.10;;;;;;6189210;23;20004;-85
2022/07/03 00:31:38;;;;;;;4.03;1.10;;;21.90;99.10;;;;;;6189277;23;20083;-85
2022/07/03 00:34:08;;;;;;;1.75;1.00;;;21.80;99.10;;;;;;6215941;23;20039;-85
2022/07/03 00:36:36;;;;;;;1.95;1.00;;;21.90;99.10;;;;;;6189189;23;20067;-85
2022/07/03 00:39:03;;;;;;;2.28;1.00;;;21.80;99.10;;;;;;6215808;23;20429;-85
2022/07/03 00:41:31;;;;;;;4.70;1.40;;;21.80;99.10;;;;;;6215849;23;20054;-85
2022/07/03 00:43:57;;;;;;;2.83;1.13;;;21.80;99.20;;;;;;6189144;23;20084;-85
2022/07/03 00:46:25;;;;;;;2.63;1.10;;;21.80;99.20;;;;;;6189145;23;20009;-85
2022/07/03 00:48:52;;;;;;;1.55;1.30;;;21.80;99.20;;;;;;6189090;23;20013;-85
2022/07/03 00:51:27;;;;;;;2.42;1.10;;;21.80;99.20;;;;;;6189472;23;20008;-85
2022/07/03 00:53:57;;;;;;;3.22;1.13;;;21.70;99.10;;;;;;6215746;23;20035;-85
2022/07/03 00:56:28;;;;;;;2.90;1.08;;;21.80;99.20;;;;;;6189075;23;20004;-85
2022/07/03 00:58:57;;;;;;;2.97;1.30;;;21.70;99.20;;;;;;6190615;23;20079;-85
2022/07/03 01:01:25;;;;;;;1.52;1.08;;;21.70;99.20;;;;;;6191526;23;20012;-85
2022/07/03 01:03:59;;;;;;;7.60;1.45;;;21.70;99.20;;;;;;6191136;23;19997;-85
2022/07/03 01:06:30;;;;;;;4.07;1.35;;;21.70;99.20;;;;;;6191161;23;20013;-85
2022/07/03 01:09:02;;;;;;;2.15;1.30;;;21.70;99.20;;;;;;6191175;23;20091;-85
2022/07/03 01:11:42;;;;;;;4.50;1.02;;;21.70;99.20;;;;;;6191071;23;20011;-85
2022/07/03 01:14:38;;;;;;;2.05;1.20;;;21.70;99.20;;;;;;6185968;23;20441;-85
2022/07/03 01:17:09;;;;;;;4.88;1.20;;;21.70;99.20;;;;;;6186043;23;20096;-85
2022/07/03 01:19:38;;;;;;;2.00;1.23;;;21.70;99.20;;;;;;6187598;23;20341;-85
2022/07/03 01:22:28;;;;;;;4.65;1.20;;;21.70;99.20;;;;;;6185915;23;20092;-85
2022/07/03 01:25:06;;;;;;;2.08;1.08;;;21.60;99.20;;;;;;6187934;23;20443;-85
2022/07/03 01:27:35;;;;;;;3.42;1.35;;;21.70;99.20;;;;;;6187514;23;20080;-85
2022/07/03 01:30:10;;;;;;;3.22;1.10;;;21.60;99.30;;;;;;6187365;23;20001;-85
2022/07/03 01:32:41;;;;;;;;;;;21.60;99.30;;;;;;6186452;23;20021;-85
2022/07/03 01:35:08;;;;;;;5.35;1.20;;;21.60;99.30;;;;;;6185777;23;20284;-85
2022/07/03 01:37:35;;;;;;;1.48;1.10;;;21.60;99.30;;;;;;6185891;23;20009;-85
2022/07/03 01:40:04;;;;;;;2.42;1.20;;;21.60;99.30;;;;;;6185873;23;20091;-85
2022/07/03 01:42:33;;;;;;;1.73;1.10;;;21.60;99.30;;;;;;6185939;23;20005;-85
2022/07/03 01:44:59;;;;;;;4.20;1.17;;;21.60;99.30;;;;;;6185741;23;20012;-85
2022/07/03 01:47:26;;;;;;;4.88;1.33;;;21.60;99.30;;;;;;6185729;23;20326;-85
2022/07/03 01:49:54;;;;;;;1.65;0.80;;;21.50;99.30;;;;;;6185718;23;20043;-85
2022/07/03 01:52:20;;;;;;;1.88;1.08;;;21.60;99.30;;;;;;6187249;23;20059;-85
2022/07/03 01:54:47;;;;;;;1.80;1.20;;;21.50;99.30;;;;;;6185675;23;20008;-85
2022/07/03 01:57:14;;;;;;;2.08;1.27;;;21.50;99.40;;;;;;6185692;23;20083;-85
2022/07/03 01:59:40;;;;;;;2.10;1.27;;;21.50;99.30;;;;;;6185708;23;20397;-85
2022/07/03 02:02:16;;;;;;;4.72;1.10;;;21.50;99.40;;;;;;6185611;23;20009;-85
2022/07/03 02:05:00;;;;;;;2.35;1.20;;;21.50;99.40;;;;;;6185646;23;20005;-85
2022/07/03 02:08:08;;;;;;;2.17;1.05;;;21.50;99.40;;;;;;6185616;23;20011;-85
2022/07/03 02:10:45;;;;;;;1.63;1.15;;;21.40;99.30;;;;;;6150019;23;20458;-85
2022/07/03 02:13:22;;;;;;;1.80;1.35;;;21.50;99.40;;;;;;6185411;23;20017;-85
2022/07/03 02:15:53;;;;;;;5.20;1.25;;;21.50;99.40;;;;;;6187321;23;20012;-85
2022/07/03 02:18:36;;;;;;;2.17;1.00;;;21.50;99.40;;;;;;6187690;23;20008;-85
2022/07/03 02:21:15;;;;;;;3.13;1.20;;;21.40;99.40;;;;;;6185598;23;20005;-85
2022/07/03 02:23:52;;;;;;;2.25;1.20;;;21.40;99.40;;;;;;6185633;23;20008;-85
2022/07/03 02:26:20;;;;;;;2.08;1.02;;;21.40;99.40;;;;;;6185779;23;20013;-85
2022/07/03 02:29:02;;;;;;;2.60;0.98;;;21.40;99.40;;;;;;6185345;23;20009;-85
2022/07/03 02:31:32;;;;;;;1.65;1.00;;;21.40;99.40;;;;;;6185486;23;20043;-85
2022/07/03 02:33:59;;;;;;;2.42;1.42;;;21.40;99.40;;;;;;6185285;23;20009;-85
2022/07/03 02:36:29;;;;;;;2.47;0.90;;;21.30;99.40;;;;;;6185193;23;20024;-85
2022/07/03 02:38:56;;;;;;;3.17;1.20;;;21.30;99.40;;;;;;6186817;23;20005;-85
2022/07/03 02:41:29;;;;;;;1.83;1.00;;;21.40;99.40;;;;;;6186763;23;20064;-85
2022/07/03 02:43:59;;;;;;;2.47;1.10;;;21.40;99.40;;;;;;6185281;23;20016;-85
2022/07/03 02:46:51;;;;;;;3.92;1.30;;;21.40;99.40;;;;;;6186708;23;20098;-85
2022/07/03 02:49:33;;;;;;;1.63;1.10;;;21.30;99.40;;;;;;6185267;23;20433;-85
2022/07/03 02:52:08;;;;;;;2.50;1.02;;;21.30;99.40;;;;;;6186743;23;20455;-85
2022/07/03 02:54:43;;;;;;;4.45;1.30;;;21.30;99.70;;;;;;6185165;23;20009;-85
2022/07/03 02:57:09;;;;;;;1.92;0.98;;;21.30;99.40;;;;;;6185125;23;20005;-85
2022/07/03 02:59:54;;;;;;;3.80;1.27;;;21.30;99.40;;;;;;6184991;23;20009;-85
2022/07/03 03:02:38;;;;;;;2.10;1.30;;;21.30;99.40;;;;;;6185081;23;20315;-85
2022/07/03 03:05:20;;;;;;;5.03;1.33;;;21.30;99.40;;;;;;6185242;23;20404;-85
2022/07/03 03:08:14;;;;;;;3.63;1.48;;;21.20;99.40;;;;;;6185171;23;20332;-85
2022/07/03 03:10:41;;;;;;;4.80;1.23;;;21.20;99.40;;;;;;6187024;23;20074;-85
2022/07/03 03:13:16;;;;;;;2.05;1.25;;;21.20;99.40;;;;;;6184823;23;20017;-85
2022/07/03 03:16:06;;;;;;;5.40;1.25;;;21.20;99.40;;;;;;6186367;23;20452;-85
2022/07/03 03:18:37;;;;;;;3.35;1.17;;;21.20;99.40;;;;;;6168131;23;20337;-85
2022/07/03 03:21:03;;;;;;;3.10;1.10;;;21.20;99.50;;;;;;6184932;23;20023;-85
2022/07/03 03:23:52;;;;;;;5.40;1.40;;;21.20;99.50;;;;;;6184839;23;20028;-85
2022/07/03 03:26:28;;;;;;;3.72;1.20;;;21.20;99.50;;;;;;6185016;23;20097;-85
2022/07/03 03:28:54;;;;;;;2.33;0.90;;;21.20;99.50;;;;;;6184800;23;20015;-85
2022/07/03 03:31:20;;;;;;;2.17;1.08;;;21.20;99.50;;;;;;6186349;23;20047;-85
2022/07/03 03:33:49;;;;;;;4.22;1.17;;;21.20;99.50;;;;;;6184784;23;20012;-85
2022/07/03 03:36:17;;;;;;;2.03;1.10;;;21.20;99.50;;;;;;6184714;23;20019;-85
2022/07/03 03:38:43;;;;;;;1.63;1.13;;;21.20;99.50;;;;;;6184669;23;20055;-85
2022/07/03 03:41:09;;;;;;;2.58;1.10;;;21.20;99.60;;;;;;6184735;23;20429;-85
2022/07/03 03:43:35;;;;;;;1.42;1.02;;;21.10;99.50;;;;;;6184755;23;20015;-85
2022/07/03 03:46:02;;;;;;;3.08;1.20;;;21.20;99.60;;;;;;6184729;23;20056;-85
2022/07/03 03:48:28;;;;;;;3.75;1.13;;;21.10;99.60;;;;;;6186242;23;20005;-85
2022/07/03 03:50:58;;;;;;;3.13;1.17;;;21.10;99.50;;;;;;6186168;23;20093;-85
2022/07/03 03:53:27;;;;;;;1.92;1.23;;;21.10;99.60;;;;;;6184552;23;20093;-85
2022/07/03 03:56:01;;;;;;;2.95;1.10;;;21.10;99.60;;;;;;6184495;23;20394;-85
2022/07/03 03:58:29;;;;;;;1.55;0.95;;;21.10;99.60;;;;;;6184517;23;20088;-85
2022/07/03 04:00:59;;;;;;;1.73;1.10;;;21.10;99.70;;;;;;6184446;23;20009;-85
2022/07/03 04:03:25;;;;;;;1.70;1.08;;;21.10;99.70;;;;;;6186381;23;20128;-85
2022/07/03 04:05:52;;;;;;;2.58;1.10;;;21.10;99.70;;;;;;6186012;23;20008;-85
2022/07/03 04:08:18;;;;;;;1.83;1.20;;;21.10;99.60;;;;;;6184491;23;20016;-85
2022/07/03 04:10:44;;;;;;;1.35;1.10;;;21.10;99.60;;;;;;6184374;23;20012;-85
2022/07/03 04:13:10;;;;;;;2.75;1.10;;;21.00;99.60;;;;;;6184141;23;20017;-85
2022/07/03 04:15:35;;;;;;;1.50;1.00;;;21.00;99.60;;;;;;6184321;23;20041;-85
2022/07/03 04:18:01;;;;;;;1.63;1.10;;;21.00;99.60;;;;;;6184348;23;20499;-85
2022/07/03 04:20:27;;;;;;;3.60;1.00;;;21.00;99.60;;;;;;6184373;23;20058;-85
2022/07/03 04:22:52;;;;;;;3.67;0.90;;;21.00;99.90;;;;;;6184383;23;20456;-85
2022/07/03 04:25:18;;;;;;;1.10;1.00;;;21.00;99.60;;;;;;6185844;23;20001;-85
2022/07/03 04:27:44;;;;;;;3.65;1.23;;;21.00;99.70;;;;;;6184292;23;20088;-85
2022/07/03 04:30:10;;;;;;;2.20;1.20;;;21.00;99.70;;;;;;6185779;23;20009;-85
2022/07/03 04:32:37;;;;;;;1.38;1.00;;;21.00;99.60;;;;;;6183967;23;20060;-85
2022/07/03 04:35:03;;;;;;;3.25;1.10;;;21.00;99.60;;;;;;6185783;23;20005;-85
2022/07/03 04:37:29;;;;;;;1.63;1.10;;;21.00;99.70;;;;;;6184185;23;20076;-85
2022/07/03 04:39:55;;;;;;;4.47;1.10;;;21.00;99.70;;;;;;6184384;23;20043;-85
2022/07/03 04:42:20;;;;;;;1.25;1.00;;;21.00;99.70;;;;;;6184356;23;20009;-85
2022/07/03 04:44:46;;;;;;;2.63;1.10;;;21.00;99.80;;;;;;6184205;23;20001;-85
2022/07/03 04:47:14;;;;;;;1.27;1.00;;;21.00;99.70;;;;;;6186105;23;19997;-85
2022/07/03 04:49:40;;;;;;;2.55;1.10;;;21.00;99.80;;;;;;6184517;23;20012;-85
2022/07/03 04:52:06;;;;;;;2.08;1.10;;;21.00;99.80;;;;;;6184335;23;20010;-85
2022/07/03 04:54:32;;;;;;;4.57;1.23;;;21.00;99.90;;;;;;6184910;23;20036;-85
2022/07/03 04:56:57;;;;;;;2.10;1.20;;;21.00;99.90;;;;;;6186844;23;20005;-85
2022/07/03 04:59:23;;;;;;;2.38;1.27;;;21.00;99.90;;;;;;6184716;23;20001;-85
2022/07/03 05:01:49;;;;;;;1.15;1.00;;;21.00;99.90;;;;;;6185850;23;20001;-85
2022/07/03 05:04:15;;;;;;;2.15;1.00;;;21.00;99.90;;;;;;6184113;23;20341;-85
2022/07/03 05:06:41;;;;;;;0.98;0.90;;;21.00;99.90;;;;;;6184211;23;20006;-85
2022/07/03 05:09:07;;;;;;;1.73;0.98;;;21.00;99.90;;;;;;6184120;23;20009;-85
2022/07/03 05:11:33;;;;;;;3.35;1.25;;;21.00;99.90;;;;;;6184168;23;20085;-85
2022/07/03 05:13:58;;;;;;;1.80;1.00;;;21.00;99.90;;;;;;6183984;23;20016;-85
2022/07/03 05:16:24;;;;;;;1.75;1.10;;;21.00;99.90;;;;;;6184200;23;20075;-85
2022/07/03 05:18:50;;;;;;;1.80;1.10;;;20.90;99.90;;;;;;6184221;23;20001;-85
2022/07/03 05:21:16;;;;;;;2.67;1.10;;;21.00;99.90;;;;;;6184087;23;20001;-85
2022/07/03 05:23:41;;;;;;;3.55;1.20;;;21.00;99.90;;;;;;6184100;23;20005;-85
2022/07/03 05:26:07;;;;;;;2.90;1.10;;;21.00;99.90;;;;;;6185634;23;20327;-85
2022/07/03 05:28:33;;;;;;;1.48;1.30;;;21.00;99.90;;;;;;6185921;23;20012;-85
2022/07/03 05:30:58;;;;;;;1.48;1.00;;;20.90;99.90;;;;;;6186064;23;20009;-85
2022/07/03 05:33:24;;;;;;;1.48;1.00;;;21.00;99.90;;;;;;6186088;23;20005;-85
2022/07/03 05:35:50;;;;;;;1.70;1.13;;;20.90;99.90;;;;;;6185995;23;20012;-85
2022/07/03 05:39:31;;;;;;;2.17;1.15;;;21.00;99.90;;;;;;6184119;23;20001;-85
2022/07/03 05:41:01;;;;;;;1.60;0.95;;;21.00;99.90;;;;;;6185630;23;20445;-85
2022/07/03 05:43:27;;;;;;;2.65;0.93;;;21.00;99.90;;;;;;6184094;23;20001;-85
2022/07/03 05:45:52;;;;;;;3.10;1.20;;;21.00;99.90;;;;;;6185424;23;20449;-85
2022/07/03 05:48:18;;;;;;;1.92;1.02;;;21.00;99.90;;;;;;6185942;23;20377;-85
2022/07/03 05:50:44;;;;;;;1.20;1.10;;;21.00;99.90;;;;;;6187328;23;20019;-85
2022/07/03 05:53:09;;;;;;;2.50;1.25;;;21.00;99.90;;;;;;6185684;23;20005;-85
2022/07/03 05:55:35;;;;;;;1.40;1.10;;;21.00;99.90;;;;;;6185671;23;20012;-85
2022/07/03 05:58:01;;;;;;;1.73;1.08;;;21.00;99.90;;;;;;6186186;23;20008;-85
2022/07/03 06:00:28;;;;;;;1.13;0.90;;;21.00;99.90;;;;;;6185561;23;20552;-85
2022/07/03 06:02:54;;;;;;;4.18;1.20;;;21.00;99.90;;;;;;6185835;23;20425;-85
2022/07/03 06:05:20;;;;;;;2.17;1.30;;;21.00;99.90;;;;;;6187243;23;20337;-85
2022/07/03 06:07:46;;;;;;;1.60;0.90;;;21.00;99.90;;;;;;6187532;23;20001;-85
2022/07/03 06:10:11;;;;;;;2.75;0.90;;;21.00;99.90;;;;;;6185618;23;20040;-85
2022/07/03 06:12:37;;;;;;;1.73;1.00;;;21.00;99.90;;;;;;6185661;23;20017;-85
2022/07/03 06:15:04;;;;;;;1.02;0.90;;;21.00;99.90;;;;;;6185463;23;20005;-85
2022/07/03 06:17:29;;;;;;;1.35;1.10;;;21.00;99.90;;;;;;6185547;23;19997;-85
2022/07/03 06:19:55;;;;;;;1.63;1.20;;;21.00;99.90;;;;;;6185499;23;20016;-85
2022/07/03 06:22:21;;;;;;;1.42;1.00;;;21.00;99.90;;;;;;6187048;23;20031;-84
2022/07/03 06:24:49;;;;;;;1.48;1.10;;;21.00;99.90;;;;;;6185798;23;20076;-85
2022/07/03 06:27:15;;;;;;;1.48;0.93;;;21.00;99.90;;;;;;6187627;23;20005;-85
2022/07/03 06:29:41;;;;;;;3.17;1.08;;;21.00;99.90;;;;;;6185953;23;20036;-85
2022/07/03 06:32:07;;;;;;;4.00;1.00;;;20.90;99.90;;;;;;6187057;23;20001;-85
2022/07/03 06:34:32;;;;;;;4.75;0.90;;;20.90;99.90;;;;;;6185988;23;20032;-85
2022/07/03 06:36:58;;;;;;;2.60;1.15;;;20.90;99.90;;;;;;6185501;23;20005;-85
2022/07/03 06:39:24;;;;;;;1.55;1.02;;;20.90;99.90;;;;;;6187267;23;20005;-85
2022/07/03 06:41:49;;;;;;;1.50;1.13;;;20.90;99.90;;;;;;6185412;23;20310;-85
2022/07/03 06:44:15;;;;;;;1.52;0.90;;;20.90;99.90;;;;;;6186935;23;20005;-85
2022/07/03 06:46:41;;;;;;;3.60;1.63;;;20.90;99.90;;;;;;6185458;23;20028;-85
2022/07/03 06:49:06;;;;;;;4.00;1.10;;;20.90;99.90;;;;;;6185404;23;20011;-85
2022/07/03 06:51:33;;;;;;;2.17;1.08;;;21.00;99.90;;;;;;6185342;23;20037;-85
2022/07/03 06:53:59;;;;;;;1.75;1.05;;;20.90;99.90;;;;;;6187155;23;20380;-85
2022/07/03 06:56:25;;;;;;;1.58;1.10;;;21.00;99.90;;;;;;6184932;23;20009;-85
2022/07/03 06:58:51;;;;;;;1.83;1.00;;;21.00;99.90;;;;;;6185316;23;20520;-85
2022/07/03 07:01:16;;;;;;;1.67;1.05;;;21.00;99.90;;;;;;6186865;23;20008;-85
2022/07/03 07:03:42;;;;;;;1.58;1.00;;;21.00;99.90;;;;;;6185443;23;20005;-84
2022/07/03 07:06:08;;;;;;;3.88;0.98;;;21.00;99.90;;;;;;6185294;23;20009;-84
2022/07/03 07:08:33;;;;;;;1.42;0.70;;;21.10;99.90;;;;;;6185266;23;20337;-84
2022/07/03 07:11:00;;;;;;;4.10;0.90;;;21.30;99.90;;;;;;6185125;23;20005;-84
2022/07/03 07:13:26;;;;;;;1.15;0.65;;;21.40;99.90;;;;;;6184971;23;20017;-84
2022/07/03 07:15:51;;;;;;;2.60;0.77;;;21.50;99.90;;;;;;6185044;23;20326;-84
2022/07/03 07:18:17;;;;;;;1.00;0.85;;;21.50;99.90;;;;;;6185018;23;20011;-85
2022/07/03 07:20:43;;;;;;;0.90;0.80;;;21.50;99.90;;;;;;6185024;23;20001;-85
2022/07/03 07:23:08;;;;;;;2.83;0.80;;;21.60;99.90;;;;;;6184925;23;20001;-85
2022/07/03 07:25:34;;;;;;;0.95;0.70;;;21.60;99.90;;;;;;6184924;23;20445;-84
2022/07/03 07:28:00;;;;;;;1.48;0.80;;;21.60;99.90;;;;;;6186471;23;20333;-84
2022/07/03 07:30:25;;;;;;;1.77;0.82;;;21.60;99.90;;;;;;6184805;23;20437;-84
2022/07/03 07:32:51;;;;;;;1.58;0.90;;;21.70;99.90;;;;;;6185094;23;20033;-84
2022/07/03 07:35:18;;;;;;;2.35;1.10;;;21.70;99.90;;;;;;6184744;23;20001;-84
2022/07/03 07:37:44;;;;;;;2.00;0.82;;;21.70;99.90;;;;;;6184973;23;20001;-84
2022/07/03 07:40:10;;;;;;;1.10;0.65;;;21.70;99.90;;;;;;6186464;23;20325;-84
2022/07/03 07:42:36;;;;;;;2.58;0.75;;;21.70;99.90;;;;;;6186363;23;20498;-84
2022/07/03 07:45:02;;;;;;;3.42;0.80;;;21.70;99.90;;;;;;6186321;23;20032;-84
2022/07/03 07:47:27;;;;;;;1.48;0.73;;;21.70;99.90;;;;;;6186438;23;20000;-84
2022/07/03 07:49:53;;;;;;;1.30;1.05;;;21.70;99.90;;;;;;6185037;23;20001;-84
2022/07/03 07:52:19;;;;;;;2.45;0.90;;;21.70;99.90;;;;;;6184860;23;20001;-84
2022/07/03 07:54:44;;;;;;;2.92;0.80;;;21.70;99.90;;;;;;6186648;23;20003;-84
2022/07/03 07:57:10;;;;;;;3.90;0.80;;;21.70;99.90;;;;;;6184480;23;20016;-84
2022/07/03 07:59:35;;;;;;;1.83;0.80;;;21.70;99.90;;;;;;6184637;23;20452;-85
2022/07/03 08:07:29;;;;;;;1.00;0.80;;;21.80;99.90;;;;;;6185795;23;20128;-85
2022/07/03 08:09:55;;;;;;;2.00;1.08;;;21.80;99.90;;;;;;6184462;23;20056;-85
2022/07/03 08:12:21;;;;;;;2.10;0.93;;;21.80;99.90;;;;;;6187071;23;20016;-85
2022/07/03 08:14:46;;;;;;;1.70;0.80;;;21.80;99.90;;;;;;6190251;23;20009;-84
2022/07/03 08:17:12;;;;;;;1.45;0.98;;;21.80;99.90;;;;;;6216224;23;20011;-85
2022/07/03 08:19:38;;;;;;;1.25;0.80;;;21.80;99.90;;;;;;6216065;23;20055;-84
2022/07/03 08:22:03;;;;;;;0.75;0.65;;;21.80;99.90;;;;;;6189405;23;20043;-84
2022/07/03 08:24:29;;;;;;;1.13;0.80;;;21.80;99.90;;;;;;6189357;23;20032;-84
2022/07/03 08:26:55;;;;;;;1.77;0.90;;;21.80;99.90;;;;;;6189341;23;20009;-85
2022/07/03 08:29:20;;;;;;;1.55;0.80;;;21.80;99.90;;;;;;6215859;23;20012;-84
2022/07/03 08:31:46;;;;;;;1.08;0.88;;;21.80;99.90;;;;;;6189277;23;20337;-85
2022/07/03 08:34:13;;;;;;;0.80;0.60;;;21.90;99.90;;;;;;6216344;23;20004;-85
2022/07/03 08:36:42;;;;;;;3.42;0.90;;;21.90;99.90;;;;;;6189214;23;20036;-85
2022/07/03 08:39:09;;;;;;;1.17;0.80;;;21.90;99.90;;;;;;6189274;23;20336;-85
2022/07/03 08:41:38;;;;;;;2.58;0.90;;;21.90;99.90;;;;;;6189300;23;20059;-86
2022/07/03 08:44:05;;;;;;;3.58;0.90;;;21.90;99.90;;;;;;6189200;23;20008;-85
2022/07/03 08:46:32;;;;;;;2.17;0.85;;;21.90;99.90;;;;;;6189269;23;20008;-85
2022/07/03 08:49:02;;;;;;;1.10;0.68;;;21.90;99.90;;;;;;6189428;23;20058;-85
2022/07/03 08:51:28;;;;;;;1.00;0.65;;;21.90;99.90;;;;;;6189198;23;20004;-85
2022/07/03 08:53:54;;;;;;;1.13;0.88;;;21.90;99.90;;;;;;6189059;23;20016;-85
2022/07/03 08:56:21;;;;;;;1.20;0.80;;;22.00;99.90;;;;;;6188997;23;20385;-85
2022/07/03 08:58:47;;;;;;;1.00;0.77;;;22.00;99.90;;;;;;6215842;23;20031;-85
2022/07/03 09:01:17;;;;;;;3.28;0.77;;;22.00;99.90;;;;;;6189194;23;19997;-85
2022/07/03 09:03:43;;;;;;;1.38;0.90;;;22.00;99.50;;;;;;6189093;23;20004;-85
2022/07/03 09:06:08;;;;;;;0.85;0.80;;;22.00;99.60;;;;;;6189151;23;20009;-85
2022/07/03 09:08:37;;;;;;;1.52;1.00;;;22.00;99.30;;;;;;6189130;23;20058;-85
2022/07/03 09:11:03;;;;;;;1.40;0.75;;;22.00;99.30;;;;;;6189145;23;20436;-85
2022/07/03 09:13:29;;;;;;;0.95;0.75;;;22.10;99.00;;;;;;6215568;23;20345;-85
2022/07/03 09:15:56;;;;;;;1.58;1.00;;;22.10;99.00;;;;;;6215960;23;20024;-85
2022/07/03 09:18:42;;;;;;;2.92;0.90;;;22.10;98.90;;;;;;6189315;23;20333;-86
2022/07/03 09:21:08;;;;;;;1.42;0.60;;;22.10;98.90;;;;;;6191207;23;20341;-85
2022/07/03 09:23:40;;;;;;;1.20;0.75;;;22.10;99.00;;;;;;6190991;23;20054;-85
2022/07/03 09:26:11;;;;;;;2.75;0.50;;;22.20;98.90;;;;;;6191109;23;20016;-85
2022/07/03 09:28:44;;;;;;;1.20;0.80;;;22.20;98.80;;;;;;6190941;23;20008;-85
2022/07/03 09:31:12;;;;;;;1.23;0.95;;;22.20;99.00;;;;;;6217781;23;20455;-85
2022/07/03 09:34:02;;;;;;;1.38;0.90;;;22.20;98.80;;;;;;6191032;23;20004;-85
2022/07/03 09:36:45;;;;;;;1.38;0.75;;;22.20;98.80;;;;;;6176267;23;20059;-85
2022/07/03 09:39:26;;;;;;;1.13;0.77;;;22.20;98.70;;;;;;6217183;23;20435;-85
2022/07/03 09:41:56;;;;;;;1.60;0.77;;;22.30;98.50;;;;;;6190771;23;20008;-85
2022/07/03 09:44:36;;;;;;;1.13;0.80;;;22.30;98.70;;;;;;6190878;23;20021;-85
2022/07/03 09:47:16;;;;;;;1.80;0.70;;;22.30;98.20;;;;;;6217376;23;20004;-85
2022/07/03 09:49:57;;;;;;;1.15;0.60;;;22.30;98.60;;;;;;6190811;23;20012;-85
2022/07/03 09:52:36;;;;;;;2.30;0.80;;;22.40;98.50;;;;;;6190783;23;20004;-85
2022/07/03 09:55:11;;;;;;;1.95;0.70;;;22.40;98.80;;;;;;6190681;23;20445;-85
2022/07/03 09:57:40;;;;;;;1.73;0.75;;;22.40;98.20;;;;;;6191687;23;20001;-85
2022/07/03 10:00:17;;;;;;;1.35;0.70;;;22.40;97.90;;;;;;6217234;23;20007;-85
2022/07/03 10:03:01;;;;;;;1.20;0.80;;;22.40;97.80;;;;;;6190719;23;20313;-86
2022/07/03 10:05:38;;;;;;;1.90;0.77;;;22.50;97.70;;;;;;6217274;23;20084;-85
2022/07/03 10:08:08;;;;;;;2.03;0.88;;;22.50;98.10;;;;;;6190500;23;20429;-86
2022/07/03 10:10:36;;;;;;;1.50;0.90;;;22.50;97.80;;;;;;6190885;23;20012;-85
2022/07/03 10:13:03;;;;;;;0.75;0.63;;;22.50;97.80;;;;;;6185300;23;20096;-86
2022/07/03 10:15:31;;;;;;;1.25;0.70;;;22.50;97.90;;;;;;6185517;23;20092;-86
2022/07/03 10:17:58;;;;;;;0.98;0.70;;;22.50;97.90;;;;;;6185386;23;20495;-86
2022/07/03 10:20:59;;;;;;;1.70;0.70;;;22.50;98.00;;;;;;6187013;23;20421;-86
2022/07/03 10:23:27;;;;;;;1.25;0.60;;;22.50;97.60;;;;;;6123501;23;20005;-85
2022/07/03 10:25:54;;;;;;;0.77;0.60;;;22.60;97.50;;;;;;6185377;23;20025;-85
2022/07/03 10:28:20;;;;;;;0.70;0.70;;;22.60;97.70;;;;;;6185235;23;20009;-86
2022/07/03 10:30:49;;;;;;;2.83;0.70;;;22.60;97.70;;;;;;6186628;23;20083;-86
2022/07/03 10:33:15;;;;;;;1.77;0.80;;;22.60;97.40;;;;;;6185383;23;20012;-86
2022/07/03 10:35:44;;;;;;;1.75;0.75;;;22.70;97.60;;;;;;6186811;23;20005;-85
2022/07/03 10:38:34;;;;;;;0.60;0.57;;;22.70;97.60;;;;;;6185284;23;20005;-85
2022/07/03 10:46:40;;;;;;;0.85;0.77;;;22.70;97.10;;;;;;6187262;23;20065;-86
2022/07/03 10:49:10;;;;;;;1.17;0.55;;;22.80;97.20;;;;;;6186829;23;20009;-85
2022/07/03 10:51:44;;;;;;;1.25;0.60;;;22.80;97.20;;;;;;6187132;23;20012;-85
2022/07/03 10:54:17;;;;;;;;;;;22.80;97.10;;;;;;6185684;23;20067;-85
2022/07/03 10:57:13;;;;;;;2.33;0.80;;;22.90;97.20;;;;;;6186696;23;19928;-86
2022/07/03 10:59:43;;;;;;;2.13;0.90;;;22.90;97.30;;;;;;6185256;23;20005;-86
2022/07/03 11:02:39;;;;;;;1.23;0.80;;;22.90;97.20;;;;;;6185072;23;20055;-86
2022/07/03 11:05:08;;;;;;;1.52;0.93;;;22.90;97.30;;;;;;6185122;23;20005;-88
2022/07/03 11:07:50;;;;;;;1.15;0.80;;;22.90;97.30;;;;;;6185072;23;20001;-85
2022/07/03 11:10:16;;;;;;;1.55;0.77;;;22.90;97.20;;;;;;6185131;23;20441;-86
2022/07/03 11:13:06;;;;;;;0.80;0.70;;;22.90;97.20;;;;;;6193799;23;20061;-86
2022/07/03 11:15:42;;;;;;;1.77;0.70;;;22.90;97.30;;;;;;6216596;23;20005;-85
2022/07/03 11:18:12;;;;;;;1.13;0.70;;;22.90;97.20;;;;;;6216573;23;20000;-86
2022/07/03 11:20:49;;;;;;;2.60;0.82;;;22.90;97.20;;;;;;6189953;23;20005;-86
2022/07/03 11:23:29;;;;;;;2.70;0.90;;;23.00;97.10;;;;;;6189903;23;20022;-86
2022/07/03 11:26:18;;;;;;;3.08;0.93;;;23.00;97.40;;;;;;6189855;23;20515;-85
2022/07/03 11:28:43;;;;;;;2.25;0.73;;;22.90;97.10;;;;;;6215463;23;20318;-86
2022/07/03 11:33:47;;;;;;;3.58;0.70;;;23.00;97.10;;;;;;6216776;23;20017;-85
2022/07/03 11:36:15;;;;;;;0.95;0.60;;;23.00;97.10;;;;;;6216364;23;20001;-86
2022/07/03 11:38:42;;;;;;;1.15;0.77;;;23.00;97.10;;;;;;6189720;23;20000;-86
2022/07/03 11:41:10;;;;;;;0.93;0.70;;;23.00;97.10;;;;;;6189697;23;20000;-85
2022/07/03 11:43:37;;;;;;;1.40;0.70;;;23.10;97.00;;;;;;6215857;23;20063;-85
2022/07/03 11:46:04;;;;;;;3.17;0.85;;;23.10;97.10;;;;;;6216295;23;20001;-85
2022/07/03 11:48:30;;;;;;;1.33;0.75;;;23.10;97.00;;;;;;6190058;23;20008;-85
2022/07/03 11:51:02;;;;;;;0.90;0.70;;;23.10;96.80;;;;;;6189780;23;20009;-85
2022/07/03 11:53:30;;;;;;;2.80;0.90;;;23.10;96.70;;;;;;6216241;23;19996;-85
2022/07/03 11:56:06;;;;;;;1.25;0.90;;;23.10;96.70;;;;;;6189400;23;20027;-86
2022/07/03 11:58:53;;;;;;;5.28;0.95;;;23.10;96.70;;;;;;6189662;23;20036;-85
2022/07/03 12:01:27;;;;;;;0.82;0.75;;;23.10;96.80;;;;;;6216145;23;19993;-87
2022/07/03 12:04:02;;;;;;;1.10;0.80;;;23.10;96.70;;;;;;6189562;23;20004;-85
2022/07/03 12:06:36;;;;;;;1.48;0.90;;;23.10;96.60;;;;;;6216220;23;20058;-86
2022/07/03 12:09:11;;;;;;;1.88;0.70;;;23.20;96.70;;;;;;6189547;23;20008;-85
2022/07/03 12:11:36;;;;;;;1.30;0.70;;;23.20;96.50;;;;;;6216101;23;20074;-85
2022/07/03 12:14:02;;;;;;;1.98;0.90;;;23.20;96.50;;;;;;6184260;23;20029;-85
2022/07/03 12:16:34;;;;;;;1.20;0.90;;;23.20;96.30;;;;;;6184283;23;20013;-85
2022/07/03 12:19:06;;;;;;;1.25;0.75;;;23.30;96.50;;;;;;6184428;23;20005;-85
2022/07/03 12:21:39;;;;;;;1.17;0.70;;;23.30;96.40;;;;;;6184374;23;20001;-84
2022/07/03 12:24:13;;;;;;;5.82;0.88;;;23.20;96.50;;;;;;6184409;23;20486;-85
2022/07/03 12:26:39;;;;;;;1.73;0.73;;;23.30;96.40;;;;;;6184536;23;20005;-85
2022/07/03 12:29:10;;;;;;;0.70;0.70;;;23.30;96.30;;;;;;6185869;23;20381;-84
2022/07/03 12:31:40;;;;;;;1.20;0.77;;;23.30;96.20;;;;;;6186197;23;20441;-85
2022/07/03 12:34:06;;;;;;;0.60;0.50;;;23.40;96.10;;;;;;6184335;23;20009;-85
2022/07/03 12:36:32;;;;;;;0.93;0.73;;;23.40;96.00;;;;;;6185636;23;20012;-85
2022/07/03 12:38:59;;;;;;;1.15;0.68;;;23.40;95.90;;;;;;6184283;23;20002;-85
2022/07/03 12:41:26;;;;;;;2.67;0.65;;;23.50;95.50;;;;;;6184372;23;20314;-86
2022/07/03 12:43:53;;;;;;;1.17;0.60;;;23.60;95.30;;;;;;6185830;23;20020;-85
2022/07/03 12:46:32;;;;;;;1.05;0.75;;;23.70;95.20;;;;;;6185747;23;20068;-85
2022/07/03 12:48:59;;;;;;;2.28;0.73;;;23.70;95.30;;;;;;6184343;23;20005;-84
2022/07/03 12:51:45;;;;;;;1.27;0.80;;;23.70;94.90;;;;;;6184294;23;20005;-85
2022/07/03 12:54:15;;;;;;;1.10;0.65;;;23.80;94.70;;;;;;6185243;23;20440;-86
2022/07/03 12:56:42;;;;;;;1.25;0.60;;;23.80;94.50;;;;;;6186146;23;20005;-85
2022/07/03 12:59:27;;;;;;;1.85;0.70;;;23.90;94.50;;;;;;6186296;23;20005;-86
2022/07/03 13:02:00;;;;;;;1.17;0.55;;;23.90;94.50;;;;;;6186217;23;20564;-85
2022/07/03 13:04:34;;;;;;;0.95;0.60;;;24.00;93.90;;;;;;6186271;23;20005;-85
2022/07/03 13:07:05;;;;;;;3.95;0.70;;;24.10;94.10;;;;;;6188546;23;20005;-85
2022/07/03 13:09:32;;;;;;;1.42;0.70;;;24.20;93.80;;;;;;6187655;23;20441;-85
2022/07/03 13:11:58;;;;;;;0.60;0.52;;;24.30;94.00;;;;;;6187694;23;20028;-86
2022/07/03 13:14:24;;;;;;;1.92;0.63;;;24.40;94.10;;;;;;6185989;23;20017;-85
2022/07/03 13:16:54;;;;;;;1.75;0.55;;;24.70;93.60;;;;;;6186019;23;20064;-86